Time;durP1;ratioP1;P1;durP2;ratioP2;P2;SDS_P1;SDS_P2;PMS_P1;PMS_P2;Temp;Humidity;BMP_temperature;BMP_pressure;BME280_temperature;BME280_humidity;BME280_pressure;Samples;Min_cycle;Max_cycle;Signal;HPM_P1;HPM_P2
2022/04/05 00:00:07;;;;;;;8.38;1.42;;;7.40;99.90;;;;;;5013513;28;20116;-55
2022/04/05 00:02:33;;;;;;;8.68;1.75;;;7.40;99.90;;;;;;5015851;28;20198;-55
2022/04/05 00:04:59;;;;;;;6.78;1.40;;;7.30;99.90;;;;;;5011881;28;20468;-60
2022/04/05 00:07:24;;;;;;;5.25;1.38;;;7.40;99.90;;;;;;4986506;28;20037;-55
2022/04/05 00:09:50;;;;;;;6.68;1.17;;;7.40;99.90;;;;;;5024227;28;20053;-56
2022/04/05 00:12:20;;;;;;;9.05;1.52;;;7.40;99.90;;;;;;5012282;28;20124;-58
2022/04/05 00:14:49;;;;;;;11.77;1.50;;;7.40;99.90;;;;;;5010728;28;20044;-59
2022/04/05 00:17:16;;;;;;;5.22;1.20;;;7.40;99.90;;;;;;5008900;28;20041;-56
2022/04/05 00:19:42;;;;;;;7.30;1.45;;;7.40;99.90;;;;;;5003413;28;20521;-57
2022/04/05 00:22:07;;;;;;;7.63;1.92;;;7.40;99.90;;;;;;5016269;28;20079;-59
2022/04/05 00:24:33;;;;;;;5.88;0.93;;;7.30;99.90;;;;;;5012364;28;20052;-58
2022/04/05 00:26:59;;;;;;;12.02;1.67;;;7.30;99.90;;;;;;5013279;28;20406;-58
2022/04/05 00:29:25;;;;;;;9.77;2.05;;;7.40;99.90;;;;;;4993897;28;20037;-57
2022/04/05 00:31:51;;;;;;;5.68;1.15;;;7.30;99.90;;;;;;5023643;28;20048;-53
2022/04/05 00:34:17;;;;;;;8.18;1.63;;;7.40;99.90;;;;;;5009820;28;20317;-58
2022/04/05 00:36:44;;;;;;;9.30;1.25;;;7.30;99.90;;;;;;5022827;28;20041;-56
2022/04/05 00:39:10;;;;;;;8.35;1.35;;;7.30;99.90;;;;;;5003996;28;20422;-58
2022/04/05 00:41:36;;;;;;;9.35;1.17;;;7.30;99.90;;;;;;5000976;28;20473;-58
2022/04/05 00:44:02;;;;;;;10.52;1.77;;;7.30;99.90;;;;;;5013937;28;20457;-60
2022/04/05 00:46:28;;;;;;;13.27;1.70;;;7.30;99.90;;;;;;5021023;28;20108;-58
2022/04/05 00:48:57;;;;;;;8.00;1.30;;;7.30;99.90;;;;;;5011917;28;20106;-56
2022/04/05 00:51:24;;;;;;;7.90;1.35;;;7.30;99.90;;;;;;5011121;28;20044;-55
2022/04/05 00:54:12;;;;;;;10.77;2.00;;;7.30;99.90;;;;;;5015100;28;21713;-58
2022/04/05 00:56:40;;;;;;;7.35;1.33;;;7.30;99.90;;;;;;5018627;28;20072;-56
2022/04/05 00:59:07;;;;;;;8.00;1.50;;;7.30;99.90;;;;;;5009213;28;20075;-56
2022/04/05 01:01:34;;;;;;;9.27;1.83;;;7.30;99.90;;;;;;5036897;28;20045;-59
2022/04/05 01:04:01;;;;;;;7.65;1.33;;;7.30;99.90;;;;;;5010937;28;20422;-58
2022/04/05 01:06:30;;;;;;;13.00;1.92;;;7.40;99.90;;;;;;4999839;28;20342;-58
2022/04/05 01:08:57;;;;;;;9.10;1.58;;;7.30;99.90;;;;;;5023830;28;20033;-56
2022/04/05 01:11:23;;;;;;;9.32;1.73;;;7.30;99.90;;;;;;5013945;28;20058;-57
2022/04/05 01:13:50;;;;;;;15.30;3.15;;;7.40;99.90;;;;;;5005045;28;20045;-54
2022/04/05 01:16:19;;;;;;;7.05;1.67;;;7.40;99.90;;;;;;4992083;28;20048;-58
2022/04/05 01:18:45;;;;;;;12.10;2.83;;;7.40;99.90;;;;;;5001222;28;20048;-55
2022/04/05 01:21:10;;;;;;;12.10;1.92;;;7.40;99.90;;;;;;5013718;28;20045;-55
2022/04/05 01:23:36;;;;;;;9.32;1.83;;;7.40;99.90;;;;;;5020328;28;20059;-55
2022/04/05 01:26:02;;;;;;;10.65;1.85;;;7.40;99.90;;;;;;5017312;28;20073;-58
2022/04/05 01:28:28;;;;;;;19.75;2.67;;;7.40;99.90;;;;;;5004415;28;20086;-56
2022/04/05 01:30:54;;;;;;;11.88;1.98;;;7.40;99.90;;;;;;4997790;28;20033;-59
2022/04/05 01:33:20;;;;;;;14.30;2.20;;;7.50;99.90;;;;;;5015776;28;20404;-56
2022/04/05 01:35:46;;;;;;;15.30;3.85;;;7.40;99.90;;;;;;5021964;28;20287;-56
2022/04/05 01:38:13;;;;;;;11.95;2.05;;;7.50;99.90;;;;;;5018558;28;20041;-55
2022/04/05 01:40:39;;;;;;;12.07;2.00;;;7.50;99.90;;;;;;5017000;28;20120;-57
2022/04/05 01:43:06;;;;;;;10.23;2.17;;;7.40;99.90;;;;;;5004431;28;20041;-56
2022/04/05 01:45:32;;;;;;;19.02;3.05;;;7.40;99.90;;;;;;5033554;28;20037;-59
2022/04/05 01:47:58;;;;;;;13.82;2.78;;;7.40;99.90;;;;;;5016043;28;20120;-56
2022/04/05 01:50:24;;;;;;;17.00;4.05;;;7.50;99.90;;;;;;5011119;28;20047;-59
2022/04/05 01:52:49;;;;;;;18.05;3.67;;;7.40;99.90;;;;;;4985267;28;22454;-56
2022/04/05 01:55:15;;;;;;;18.67;3.28;;;7.40;99.90;;;;;;5031071;28;20754;-58
2022/04/05 01:57:41;;;;;;;13.80;3.05;;;7.50;99.90;;;;;;4997114;28;20716;-57
2022/04/05 02:00:14;;;;;;;13.95;3.95;;;7.40;99.90;;;;;;5007833;28;20049;-58
2022/04/05 02:02:41;;;;;;;13.98;3.03;;;7.40;99.90;;;;;;5002579;28;20053;-58
2022/04/05 02:05:07;;;;;;;19.80;3.38;;;7.50;99.90;;;;;;5014032;28;20049;-57
2022/04/05 02:07:33;;;;;;;17.55;2.55;;;7.40;99.90;;;;;;4997121;28;20522;-59
2022/04/05 02:09:59;;;;;;;17.45;2.63;;;7.40;99.90;;;;;;5015477;28;20095;-58
2022/04/05 02:12:24;;;;;;;19.35;2.83;;;7.40;99.90;;;;;;5013975;28;20551;-57
2022/04/05 02:14:50;;;;;;;19.85;3.63;;;7.40;99.90;;;;;;4989537;28;20049;-54
2022/04/05 02:17:16;;;;;;;10.30;2.63;;;7.40;99.90;;;;;;5004093;28;20048;-57
2022/04/05 02:19:43;;;;;;;18.90;2.58;;;7.40;99.90;;;;;;4993183;28;20098;-57
2022/04/05 02:22:09;;;;;;;16.08;2.80;;;7.40;99.90;;;;;;5011330;28;20071;-57
2022/04/05 02:24:35;;;;;;;17.35;2.22;;;7.40;99.90;;;;;;5011474;28;20045;-56
2022/04/05 02:27:02;;;;;;;17.77;2.97;;;7.40;99.90;;;;;;5012969;28;20064;-56
2022/04/05 02:29:27;;;;;;;21.20;2.53;;;7.40;99.90;;;;;;5016305;28;20323;-56
2022/04/05 02:31:53;;;;;;;12.20;2.33;;;7.40;99.90;;;;;;5011782;28;20041;-60
2022/04/05 02:34:19;;;;;;;17.13;3.38;;;7.40;99.90;;;;;;5008278;28;20735;-58
2022/04/05 02:36:45;;;;;;;13.10;2.75;;;7.40;99.90;;;;;;5008532;28;20127;-59
2022/04/05 02:39:11;;;;;;;17.10;2.67;;;7.40;99.90;;;;;;5006949;28;20485;-54
2022/04/05 02:41:37;;;;;;;13.43;2.75;;;7.50;99.90;;;;;;5012484;28;20102;-58
2022/04/05 02:44:03;;;;;;;16.75;2.60;;;7.50;99.90;;;;;;5023545;28;20424;-59
2022/04/05 02:46:29;;;;;;;18.77;2.80;;;7.40;99.90;;;;;;5007059;28;20474;-57
2022/04/05 02:48:55;;;;;;;15.18;4.00;;;7.50;99.90;;;;;;5007199;28;20124;-60
2022/04/05 02:51:22;;;;;;;14.98;3.55;;;7.40;99.90;;;;;;5007029;28;20041;-58
2022/04/05 02:53:48;;;;;;;18.63;3.22;;;7.40;99.90;;;;;;5007633;28;20041;-57
2022/04/05 02:56:14;;;;;;;23.17;5.18;;;7.40;99.90;;;;;;5021289;28;20576;-57
2022/04/05 02:58:41;;;;;;;19.67;2.95;;;7.40;99.90;;;;;;5028683;28;20037;-57
2022/04/05 03:01:07;;;;;;;15.32;3.83;;;7.40;99.90;;;;;;5011856;28;20045;-59
2022/04/05 03:03:33;;;;;;;15.63;2.45;;;7.40;99.90;;;;;;5009613;28;20038;-58
2022/04/05 03:06:00;;;;;;;13.68;2.40;;;7.40;99.90;;;;;;5005817;28;20570;-56
2022/04/05 03:08:25;;;;;;;22.63;3.40;;;7.40;99.90;;;;;;5008296;28;20132;-59
2022/04/05 03:10:53;;;;;;;17.02;3.30;;;7.40;99.90;;;;;;5009657;28;20051;-56
2022/04/05 03:13:19;;;;;;;17.08;3.13;;;7.40;99.90;;;;;;5006716;28;20124;-59
2022/04/05 03:15:45;;;;;;;17.85;3.10;;;7.40;99.90;;;;;;5004143;28;20044;-58
2022/04/05 03:18:11;;;;;;;17.75;3.15;;;7.40;99.90;;;;;;5030282;28;20049;-57
2022/04/05 03:20:37;;;;;;;11.85;3.28;;;7.40;99.90;;;;;;5003645;28;20044;-58
2022/04/05 03:23:03;;;;;;;17.02;3.95;;;7.40;99.90;;;;;;5007241;28;20033;-58
2022/04/05 03:25:28;;;;;;;15.60;2.92;;;7.40;99.90;;;;;;5014152;28;20033;-60
2022/04/05 03:27:54;;;;;;;19.02;3.78;;;7.40;99.90;;;;;;5010133;28;20045;-57
2022/04/05 03:30:22;;;;;;;10.98;2.58;;;7.40;99.90;;;;;;5036813;28;20095;-58
2022/04/05 03:32:48;;;;;;;15.73;2.95;;;7.40;99.90;;;;;;5009110;28;20064;-55
2022/04/05 03:35:14;;;;;;;14.23;2.78;;;7.40;99.90;;;;;;5033063;28;20119;-58
2022/04/05 03:37:40;;;;;;;20.05;3.28;;;7.40;99.90;;;;;;5013083;28;20099;-57
2022/04/05 03:40:07;;;;;;;21.25;5.30;;;7.40;99.90;;;;;;5009797;28;20049;-59
2022/04/05 03:42:33;;;;;;;14.65;3.40;;;7.40;99.90;;;;;;4997563;28;20041;-59
2022/04/05 03:45:00;;;;;;;16.13;3.97;;;7.40;99.90;;;;;;5011916;28;20106;-57
2022/04/05 03:47:27;;;;;;;19.13;3.55;;;7.40;99.90;;;;;;5002585;28;20045;-58
2022/04/05 03:49:53;;;;;;;17.33;4.68;;;7.40;99.90;;;;;;5002222;28;20048;-58
2022/04/05 03:52:19;;;;;;;17.50;5.50;;;7.30;99.90;;;;;;5024332;28;20077;-55
2022/04/05 03:54:46;;;;;;;17.23;3.90;;;7.30;99.90;;;;;;5008873;28;20043;-57
2022/04/05 03:57:11;;;;;;;17.95;6.80;;;7.40;99.90;;;;;;5005421;28;20125;-59
2022/04/05 03:59:37;;;;;;;18.15;5.75;;;7.40;99.90;;;;;;4990501;28;20604;-57
2022/04/05 04:02:04;;;;;;;13.52;4.93;;;7.30;99.90;;;;;;5015516;28;20040;-58
2022/04/05 04:04:29;;;;;;;15.82;3.53;;;7.30;99.90;;;;;;4991559;28;20080;-58
2022/04/05 04:06:55;;;;;;;20.90;4.00;;;7.30;99.90;;;;;;5006036;28;20119;-58
2022/04/05 04:09:21;;;;;;;14.65;3.03;;;7.30;99.90;;;;;;5031750;28;20125;-58
2022/04/05 04:11:48;;;;;;;15.15;3.13;;;7.30;99.90;;;;;;5009748;28;20447;-54
2022/04/05 04:14:14;;;;;;;16.98;3.63;;;7.30;99.90;;;;;;5011142;28;20152;-57
2022/04/05 04:16:39;;;;;;;10.75;2.88;;;7.30;99.90;;;;;;5001963;28;20474;-57
2022/04/05 04:19:05;;;;;;;14.27;3.03;;;7.30;99.90;;;;;;4990680;28;20175;-56
2022/04/05 04:21:31;;;;;;;18.02;3.35;;;7.30;99.90;;;;;;5006733;28;20044;-57
2022/04/05 04:23:57;;;;;;;12.75;3.78;;;7.30;99.90;;;;;;5006447;28;20091;-58
2022/04/05 04:26:23;;;;;;;13.95;3.65;;;7.30;99.90;;;;;;5013211;28;20325;-58
2022/04/05 04:28:52;;;;;;;18.27;3.72;;;7.30;99.90;;;;;;5029441;28;20441;-58
2022/04/05 04:31:18;;;;;;;13.13;4.28;;;7.30;99.90;;;;;;5012123;28;20068;-56
2022/04/05 04:33:44;;;;;;;13.45;3.88;;;7.30;99.90;;;;;;5004638;28;20041;-56
2022/04/05 04:36:10;;;;;;;14.23;3.58;;;7.30;99.90;;;;;;4993252;28;20083;-57
2022/04/05 04:38:36;;;;;;;12.65;3.75;;;7.30;99.90;;;;;;5015103;28;20037;-57
2022/04/05 04:41:02;;;;;;;11.60;4.55;;;7.30;99.90;;;;;;5026183;28;20102;-58
2022/04/05 04:43:28;;;;;;;11.23;3.20;;;7.30;99.90;;;;;;5034849;28;20041;-58
2022/04/05 04:45:54;;;;;;;13.18;3.58;;;7.30;99.90;;;;;;4991828;28;20045;-58
2022/04/05 04:48:21;;;;;;;16.70;3.55;;;7.20;99.90;;;;;;5009091;28;20048;-57
2022/04/05 04:50:48;;;;;;;13.77;3.15;;;7.20;99.90;;;;;;4998702;28;20123;-60
2022/04/05 04:53:14;;;;;;;9.05;2.72;;;7.30;99.90;;;;;;5009060;28;20267;-58
2022/04/05 04:55:39;;;;;;;12.43;3.50;;;7.20;99.90;;;;;;5030560;28;20401;-60
2022/04/05 04:58:05;;;;;;;11.90;2.97;;;7.20;99.90;;;;;;5014195;28;20033;-60
2022/04/05 05:00:31;;;;;;;12.45;3.00;;;7.20;99.90;;;;;;5007081;28;20473;-60
2022/04/05 05:02:57;;;;;;;19.33;3.28;;;7.20;99.90;;;;;;5025534;28;20040;-59
2022/04/05 05:05:23;;;;;;;7.03;3.00;;;7.20;99.90;;;;;;5018863;28;20406;-59
2022/04/05 05:07:51;;;;;;;10.77;2.80;;;7.20;99.90;;;;;;5009737;28;20132;-59
2022/04/05 05:10:17;;;;;;;8.82;2.42;;;7.20;99.90;;;;;;5012723;28;20037;-59
2022/04/05 05:12:44;;;;;;;15.32;3.00;;;7.20;99.90;;;;;;5003291;28;20045;-57
2022/04/05 05:15:15;;;;;;;10.05;2.90;;;7.10;99.90;;;;;;5009786;28;20497;-58
2022/04/05 05:17:41;;;;;;;11.38;2.83;;;7.10;99.90;;;;;;5007853;28;20049;-55
2022/04/05 05:20:08;;;;;;;9.77;2.90;;;7.10;99.90;;;;;;5004452;28;20060;-58
2022/04/05 05:22:34;;;;;;;15.55;3.03;;;7.10;99.90;;;;;;5004844;28;20310;-56
2022/04/05 05:25:00;;;;;;;12.40;2.53;;;7.10;99.90;;;;;;5002654;28;20045;-59
2022/04/05 05:27:26;;;;;;;11.00;3.00;;;7.10;99.90;;;;;;5014574;28;20041;-57
2022/04/05 05:29:51;;;;;;;9.98;2.45;;;7.10;99.90;;;;;;5009510;28;20517;-53
2022/04/05 05:32:17;;;;;;;10.23;3.00;;;7.10;99.90;;;;;;5006330;28;20041;-57
2022/04/05 05:34:43;;;;;;;14.27;2.88;;;7.10;99.90;;;;;;5005621;28;20588;-57
2022/04/05 05:37:09;;;;;;;11.20;2.30;;;7.10;99.90;;;;;;5004743;28;21420;-58
2022/04/05 05:39:36;;;;;;;11.88;2.67;;;7.10;99.90;;;;;;4985402;28;20052;-58
2022/04/05 05:42:04;;;;;;;15.32;2.45;;;7.10;99.90;;;;;;5010585;28;20053;-56
2022/04/05 05:44:30;;;;;;;8.80;2.58;;;7.10;99.90;;;;;;5001792;28;20645;-57
2022/04/05 05:46:56;;;;;;;11.60;3.10;;;7.10;99.90;;;;;;5008964;28;20488;-57
2022/04/05 05:49:22;;;;;;;15.25;3.42;;;7.10;99.90;;;;;;5010267;28;21809;-57
2022/04/05 05:51:48;;;;;;;15.25;2.85;;;7.20;99.90;;;;;;5013968;28;20045;-57
2022/04/05 05:54:14;;;;;;;10.38;3.08;;;7.10;99.90;;;;;;5008810;28;20555;-56
2022/04/05 05:56:40;;;;;;;17.00;3.20;;;7.10;99.90;;;;;;5031763;28;20197;-58
2022/04/05 05:59:05;;;;;;;13.68;2.67;;;7.10;99.90;;;;;;5004653;28;20406;-59
2022/04/05 06:01:31;;;;;;;13.75;3.30;;;7.10;99.90;;;;;;4991276;28;20690;-55
2022/04/05 06:03:57;;;;;;;9.80;2.60;;;7.20;99.90;;;;;;4988337;28;20106;-58
2022/04/05 06:06:23;;;;;;;9.18;2.05;;;7.10;99.90;;;;;;4991952;28;20044;-58
2022/04/05 06:08:48;;;;;;;17.58;2.70;;;7.20;99.90;;;;;;4995474;28;20478;-57
2022/04/05 06:11:14;;;;;;;10.18;2.35;;;7.20;99.90;;;;;;5012879;28;20049;-56
2022/04/05 06:13:40;;;;;;;9.10;2.80;;;7.30;99.90;;;;;;4996475;28;20045;-57
2022/04/05 06:16:09;;;;;;;13.40;2.00;;;7.30;99.90;;;;;;4995569;28;20041;-58
2022/04/05 06:18:35;;;;;;;9.80;1.83;;;7.30;99.90;;;;;;5021338;28;20046;-54
2022/04/05 06:21:01;;;;;;;8.20;2.47;;;7.30;99.90;;;;;;5015124;28;20908;-56
2022/04/05 06:23:27;;;;;;;9.77;2.25;;;7.40;99.90;;;;;;5033719;28;20087;-56
2022/04/05 06:25:52;;;;;;;6.85;1.95;;;7.40;99.90;;;;;;5014028;28;20060;-55
2022/04/05 06:28:18;;;;;;;8.30;2.05;;;7.40;99.90;;;;;;5014557;28;20045;-53
2022/04/05 06:30:44;;;;;;;6.82;1.90;;;7.40;99.90;;;;;;5015261;28;20470;-53
2022/04/05 06:33:15;;;;;;;13.23;2.50;;;7.50;99.90;;;;;;4998065;28;20106;-53
2022/04/05 06:35:48;;;;;;;9.77;1.88;;;7.50;99.90;;;;;;5010700;28;20047;-56
2022/04/05 06:38:14;;;;;;;9.07;2.00;;;7.50;99.90;;;;;;4996253;28;20049;-56
2022/04/05 06:40:43;;;;;;;14.98;2.72;;;7.50;99.90;;;;;;5013826;28;20049;-55
2022/04/05 06:43:10;;;;;;;7.35;1.60;;;7.50;99.90;;;;;;5013302;28;20045;-55
2022/04/05 06:45:37;;;;;;;10.20;2.50;;;7.50;99.90;;;;;;5005111;28;20049;-55
2022/04/05 06:48:03;;;;;;;11.65;2.55;;;7.40;99.90;;;;;;4996859;28;20052;-55
2022/04/05 06:50:29;;;;;;;7.13;1.73;;;7.50;99.90;;;;;;4987906;28;20493;-56
2022/04/05 06:52:57;;;;;;;9.57;1.90;;;7.50;99.90;;;;;;5007753;28;20033;-57
2022/04/05 06:55:25;;;;;;;5.47;1.65;;;7.50;99.90;;;;;;5008955;28;20044;-55
2022/04/05 06:57:51;;;;;;;8.23;2.08;;;7.60;99.90;;;;;;5001166;28;20053;-57
2022/04/05 07:00:18;;;;;;;10.02;1.92;;;7.60;99.90;;;;;;5014972;28;20072;-57
2022/04/05 07:02:44;;;;;;;9.80;2.65;;;7.60;99.90;;;;;;5021263;28;20123;-56
2022/04/05 07:05:10;;;;;;;12.27;2.13;;;7.60;99.90;;;;;;5003102;28;20048;-55
2022/04/05 07:07:37;;;;;;;9.82;1.92;;;7.60;99.90;;;;;;4981944;28;20060;-57
2022/04/05 07:10:04;;;;;;;7.88;2.85;;;7.60;99.90;;;;;;5002916;28;20049;-56
2022/04/05 07:12:32;;;;;;;7.32;2.22;;;7.60;99.90;;;;;;5003216;28;20126;-58
2022/04/05 07:14:58;;;;;;;8.82;1.92;;;7.60;99.90;;;;;;5012473;28;20615;-56
2022/04/05 07:17:25;;;;;;;7.65;1.48;;;7.70;99.90;;;;;;5015338;28;20565;-53
2022/04/05 07:19:51;;;;;;;7.80;1.67;;;7.60;99.90;;;;;;5020143;28;20409;-54
2022/04/05 07:22:17;;;;;;;11.00;1.90;;;7.60;99.90;;;;;;5001201;28;22190;-55
2022/04/05 07:24:43;;;;;;;8.68;2.30;;;7.60;99.90;;;;;;5005782;28;20037;-53
2022/04/05 07:27:09;;;;;;;7.10;1.50;;;7.70;99.90;;;;;;5010324;28;20045;-57
2022/04/05 07:29:34;;;;;;;7.95;1.80;;;7.80;99.90;;;;;;4992202;28;20052;-55
2022/04/05 07:32:00;;;;;;;6.93;1.40;;;7.70;99.90;;;;;;5024945;28;20064;-57
2022/04/05 07:34:26;;;;;;;8.82;1.80;;;7.70;99.90;;;;;;4994195;28;20037;-54
2022/04/05 07:36:52;;;;;;;6.60;1.90;;;7.80;99.90;;;;;;5009321;28;20509;-55
2022/04/05 07:39:21;;;;;;;12.80;2.08;;;7.70;99.90;;;;;;5008540;28;20732;-56
2022/04/05 07:41:47;;;;;;;10.23;1.90;;;7.80;99.90;;;;;;4983728;28;20055;-56
2022/04/05 07:44:13;;;;;;;9.35;2.15;;;7.80;99.90;;;;;;5010196;28;20080;-56
2022/04/05 07:46:39;;;;;;;11.10;2.03;;;7.80;99.90;;;;;;5009415;28;20068;-57
2022/04/05 07:49:05;;;;;;;5.40;1.88;;;7.80;99.90;;;;;;4998574;28;20041;-57
2022/04/05 07:51:31;;;;;;;11.98;2.20;;;7.80;99.90;;;;;;5004715;28;20091;-55
2022/04/05 07:53:56;;;;;;;12.65;2.80;;;7.80;99.90;;;;;;5015934;28;20049;-54
2022/04/05 07:56:22;;;;;;;9.07;2.60;;;7.80;99.90;;;;;;5006329;28;20045;-55
2022/04/05 07:58:48;;;;;;;6.28;1.90;;;7.90;99.90;;;;;;5000401;28;20982;-54
2022/04/05 08:01:14;;;;;;;7.10;2.60;;;7.80;99.90;;;;;;5011966;28;20122;-57
2022/04/05 08:03:39;;;;;;;9.20;2.35;;;7.90;99.90;;;;;;4997236;28;20493;-55
2022/04/05 08:06:06;;;;;;;9.20;2.22;;;7.90;99.90;;;;;;5005414;28;20667;-56
2022/04/05 08:08:32;;;;;;;8.20;2.30;;;8.00;99.90;;;;;;5024984;28;20049;-56
2022/04/05 08:10:58;;;;;;;11.00;2.80;;;8.00;99.90;;;;;;5000558;28;20044;-54
2022/04/05 08:13:26;;;;;;;9.35;2.45;;;8.00;99.90;;;;;;5008241;28;20072;-56
2022/04/05 08:15:52;;;;;;;8.13;2.38;;;8.00;99.90;;;;;;5004242;28;20059;-57
2022/04/05 08:18:19;;;;;;;6.97;2.40;;;8.10;99.90;;;;;;5005289;28;20041;-58
2022/04/05 08:20:45;;;;;;;7.63;1.88;;;8.10;99.90;;;;;;5022231;28;20041;-56
2022/04/05 08:23:11;;;;;;;8.93;2.42;;;8.10;99.90;;;;;;5013796;28;20448;-54
2022/04/05 08:25:37;;;;;;;7.93;2.55;;;8.10;99.90;;;;;;5011616;28;20057;-55
2022/04/05 08:28:04;;;;;;;12.02;2.83;;;8.20;99.90;;;;;;5008047;28;20040;-57
2022/04/05 08:30:30;;;;;;;9.05;2.83;;;8.10;99.90;;;;;;5016174;28;20394;-55
2022/04/05 08:32:56;;;;;;;7.45;1.60;;;8.20;99.90;;;;;;5015456;28;20044;-55
2022/04/05 08:35:22;;;;;;;5.80;1.90;;;8.20;99.90;;;;;;5032414;28;20052;-56
2022/04/05 08:37:50;;;;;;;5.57;2.10;;;8.20;99.90;;;;;;5011242;28;20072;-56
2022/04/05 08:40:18;;;;;;;7.25;1.75;;;8.30;99.90;;;;;;5011415;28;20457;-58
2022/04/05 08:42:47;;;;;;;6.50;1.70;;;8.30;99.90;;;;;;5012803;28;20132;-55
2022/04/05 08:45:14;;;;;;;6.13;2.28;;;8.30;99.90;;;;;;5007685;28;20053;-57
2022/04/05 08:47:46;;;;;;;8.48;2.58;;;8.40;99.90;;;;;;5019336;28;20064;-55
2022/04/05 08:50:17;;;;;;;5.28;2.45;;;8.40;99.90;;;;;;5012779;28;20052;-59
2022/04/05 08:52:46;;;;;;;12.95;4.38;;;8.40;99.90;;;;;;5015068;28;20059;-57
2022/04/05 08:55:13;;;;;;;13.07;3.92;;;8.30;99.90;;;;;;5030861;28;20397;-57
2022/04/05 08:57:39;;;;;;;9.32;3.00;;;8.30;99.90;;;;;;4993241;28;20049;-56
2022/04/05 09:00:08;;;;;;;9.15;2.80;;;8.30;99.90;;;;;;5010592;28;20046;-58
2022/04/05 09:02:34;;;;;;;7.55;1.90;;;8.40;99.90;;;;;;5013683;28;20041;-55
2022/04/05 09:05:00;;;;;;;6.03;2.38;;;8.40;99.90;;;;;;5001901;28;20033;-57
2022/04/05 09:07:33;;;;;;;4.70;1.80;;;8.40;99.90;;;;;;5000483;28;20041;-59
2022/04/05 09:10:16;;;;;;;5.90;2.93;;;8.60;99.90;;;;;;5013655;28;20186;-57
2022/04/05 09:12:51;;;;;;;6.57;3.35;;;8.70;99.90;;;;;;5029318;28;20368;-56
2022/04/05 09:15:16;;;;;;;6.82;3.30;;;8.60;99.90;;;;;;5013128;28;20041;-58
2022/04/05 09:17:44;;;;;;;7.82;3.22;;;8.50;99.90;;;;;;5018175;28;20122;-53
2022/04/05 09:20:12;;;;;;;6.47;3.08;;;8.40;99.90;;;;;;5029753;28;20047;-52
2022/04/05 09:22:38;;;;;;;4.47;2.20;;;8.40;99.90;;;;;;5013014;28;20124;-56
2022/04/05 09:25:10;;;;;;;7.63;1.95;;;8.40;99.90;;;;;;5034486;28;20536;-55
2022/04/05 09:27:52;;;;;;;5.15;2.10;;;8.50;99.90;;;;;;5018148;28;20045;-57
2022/04/05 09:30:31;;;;;;;6.97;3.33;;;8.50;99.90;;;;;;5021729;28;20506;-57
2022/04/05 09:33:02;;;;;;;5.15;2.08;;;8.50;99.90;;;;;;5018949;28;20037;-63
2022/04/05 09:35:43;;;;;;;5.43;2.13;;;8.50;99.90;;;;;;5019812;28;20646;-54
2022/04/05 09:38:15;;;;;;;4.10;1.30;;;8.50;99.90;;;;;;5012628;28;20077;-54
2022/04/05 09:40:42;;;;;;;4.72;1.98;;;8.60;99.90;;;;;;5012137;28;20048;-59
2022/04/05 09:43:16;;;;;;;2.80;1.40;;;8.70;99.90;;;;;;5012311;28;20138;-63
2022/04/05 09:45:48;;;;;;;2.88;1.30;;;8.70;99.90;;;;;;5024193;28;20509;-55
2022/04/05 09:48:15;;;;;;;3.28;1.30;;;8.70;99.90;;;;;;5005368;28;20041;-56
2022/04/05 09:51:01;;;;;;;2.38;1.20;;;8.70;99.90;;;;;;5022566;28;20032;-54
2022/04/05 09:53:46;;;;;;;9.80;2.00;;;8.60;99.90;;;;;;5011634;28;20183;-56
2022/04/05 09:56:18;;;;;;;4.05;1.42;;;8.70;99.90;;;;;;4993781;28;20049;-54
2022/04/05 09:58:47;;;;;;;3.95;1.40;;;8.70;99.90;;;;;;5004423;28;20069;-60
2022/04/05 10:01:14;;;;;;;1.95;1.00;;;8.80;99.90;;;;;;5029620;28;20052;-60
2022/04/05 10:03:42;;;;;;;2.10;1.30;;;8.80;99.90;;;;;;5014752;28;20056;-59
2022/04/05 10:06:08;;;;;;;1.40;1.15;;;8.90;99.90;;;;;;4992810;28;20045;-60
2022/04/05 10:08:36;;;;;;;3.00;1.17;;;9.00;99.90;;;;;;4995647;28;20044;-56
2022/04/05 10:11:03;;;;;;;1.52;1.10;;;9.00;99.90;;;;;;5011484;28;20041;-58
2022/04/05 10:13:30;;;;;;;2.45;1.15;;;9.10;99.90;;;;;;5009877;28;20655;-63
2022/04/05 10:15:57;;;;;;;3.17;1.60;;;9.10;99.90;;;;;;5009143;28;20044;-58
2022/04/05 10:18:24;;;;;;;0.93;0.70;;;9.10;99.90;;;;;;5009871;28;20122;-56
2022/04/05 10:20:51;;;;;;;2.10;0.98;;;9.10;99.90;;;;;;5027275;28;20088;-57
2022/04/05 10:23:22;;;;;;;1.10;0.90;;;9.10;99.90;;;;;;5003536;28;21657;-57
2022/04/05 10:25:53;;;;;;;1.73;0.80;;;9.00;99.90;;;;;;5019732;28;20052;-62
2022/04/05 10:28:24;;;;;;;1.83;1.02;;;9.10;99.90;;;;;;4997251;28;20517;-59
2022/04/05 10:31:21;;;;;;;1.13;0.90;;;9.20;99.90;;;;;;5026114;28;20137;-57
2022/04/05 10:34:05;;;;;;;1.50;0.90;;;9.10;99.90;;;;;;5011513;28;20041;-63
2022/04/05 10:36:32;;;;;;;2.00;1.10;;;9.10;99.90;;;;;;5013767;28;20045;-53
2022/04/05 10:39:17;;;;;;;1.38;1.00;;;9.20;99.90;;;;;;5015461;28;20076;-58
2022/04/05 10:42:04;;;;;;;0.95;0.85;;;9.40;99.90;;;;;;5011406;28;20359;-61
2022/04/05 10:44:30;;;;;;;2.08;1.30;;;9.50;99.90;;;;;;5013337;28;20399;-58
2022/04/05 10:47:01;;;;;;;1.95;1.02;;;9.40;99.90;;;;;;5014771;28;20056;-58
2022/04/05 10:49:39;;;;;;;1.80;1.20;;;9.50;99.90;;;;;;5009498;28;20045;-61
2022/04/05 10:52:15;;;;;;;1.90;1.10;;;9.50;99.90;;;;;;5034129;28;20083;-56
2022/04/05 10:54:50;;;;;;;3.15;1.70;;;9.50;99.90;;;;;;5012766;28;20075;-57
2022/04/05 10:57:26;;;;;;;1.73;1.10;;;9.60;99.90;;;;;;5008723;28;20163;-54
2022/04/05 11:00:01;;;;;;;2.97;1.77;;;9.60;99.90;;;;;;4988068;28;20044;-58
2022/04/05 11:02:28;;;;;;;2.75;1.48;;;9.70;99.90;;;;;;5019763;28;20060;-56
2022/04/05 11:05:24;;;;;;;3.25;1.58;;;9.70;99.90;;;;;;5013249;28;20123;-56
2022/04/05 11:07:58;;;;;;;2.65;1.65;;;9.80;99.90;;;;;;5008470;28;20584;-57
2022/04/05 11:10:27;;;;;;;3.72;2.25;;;9.70;99.90;;;;;;5021518;28;20102;-54
2022/04/05 11:13:08;;;;;;;3.40;2.05;;;9.80;99.90;;;;;;5012303;28;20041;-58
2022/04/05 11:15:45;;;;;;;2.92;1.70;;;9.80;99.90;;;;;;5021004;28;20049;-58
2022/04/05 11:18:23;;;;;;;3.03;1.95;;;9.80;99.90;;;;;;5019681;28;20103;-59
2022/04/05 11:20:51;;;;;;;2.70;1.88;;;9.80;99.90;;;;;;5034305;28;20083;-55
2022/04/05 11:23:18;;;;;;;3.10;2.10;;;10.00;99.90;;;;;;5003088;28;20045;-67
2022/04/05 11:25:45;;;;;;;3.55;2.38;;;10.10;99.90;;;;;;5020428;28;20038;-61
2022/04/05 11:28:21;;;;;;;3.20;2.30;;;10.30;99.90;;;;;;5021064;28;20146;-57
2022/04/05 11:30:54;;;;;;;4.40;3.42;;;10.30;99.90;;;;;;5004801;28;20382;-55
2022/04/05 11:33:34;;;;;;;3.85;2.83;;;10.30;99.90;;;;;;5016888;28;20048;-55
2022/04/05 11:36:13;;;;;;;4.63;2.72;;;10.40;99.90;;;;;;5021443;28;20053;-55
2022/04/05 11:38:50;;;;;;;4.40;2.90;;;10.40;99.90;;;;;;5013874;28;20116;-53
2022/04/05 11:41:22;;;;;;;3.90;2.83;;;10.30;99.90;;;;;;5021334;28;20048;-63
2022/04/05 11:43:57;;;;;;;4.45;3.05;;;10.30;99.90;;;;;;5035448;22;20021;-64
2022/04/05 11:46:28;;;;;;;4.72;3.30;;;10.40;99.90;;;;;;5052237;28;20075;-62
2022/04/05 11:49:03;;;;;;;5.50;4.10;;;10.40;99.90;;;;;;5059406;28;20039;-63
2022/04/05 11:51:34;;;;;;;4.65;3.70;;;10.40;99.90;;;;;;5064244;28;20024;-68
2022/04/05 11:54:07;;;;;;;5.22;3.35;;;10.50;99.90;;;;;;5045787;28;20040;-60
2022/04/05 11:56:36;;;;;;;4.57;3.22;;;10.60;99.90;;;;;;5049136;28;20028;-61
2022/04/05 11:59:04;;;;;;;4.13;2.78;;;10.70;99.90;;;;;;5052832;28;20049;-64
2022/04/05 12:01:36;;;;;;;4.28;3.17;;;10.80;99.90;;;;;;5065006;28;20589;-63
2022/04/05 12:04:12;;;;;;;4.32;2.95;;;10.90;99.90;;;;;;5063640;28;20048;-65
2022/04/05 12:06:41;;;;;;;5.97;3.45;;;11.00;99.90;;;;;;5051388;28;20041;-64
2022/04/05 12:09:16;;;;;;;6.70;4.57;;;11.10;99.90;;;;;;5037998;28;20750;-63
2022/04/05 12:11:46;;;;;;;5.22;4.03;;;11.10;99.90;;;;;;5053875;28;20562;-68
2022/04/05 12:14:20;;;;;;;5.65;3.97;;;11.10;99.90;;;;;;5035184;28;20084;-67
2022/04/05 12:16:56;;;;;;;5.63;3.70;;;11.10;99.90;;;;;;5064226;28;20536;-64
2022/04/05 12:19:37;;;;;;;7.07;4.82;;;11.00;99.90;;;;;;5040138;28;20136;-63
2022/04/05 12:22:18;;;;;;;7.80;4.63;;;10.90;99.90;;;;;;5058225;28;20048;-65
2022/04/05 12:24:50;;;;;;;8.70;5.43;;;10.90;99.90;;;;;;5051364;28;20044;-62
2022/04/05 12:27:21;;;;;;;11.52;5.03;;;10.80;99.90;;;;;;5044252;28;21032;-63
2022/04/05 12:29:47;;;;;;;9.32;5.78;;;10.70;99.90;;;;;;5053124;28;20044;-69
2022/04/05 12:32:14;;;;;;;11.25;5.95;;;10.60;99.90;;;;;;5057734;28;20044;-65
2022/04/05 12:34:41;;;;;;;7.72;5.15;;;10.50;99.90;;;;;;5060560;28;20474;-64
2022/04/05 12:37:14;;;;;;;5.65;4.35;;;10.50;99.90;;;;;;5060793;28;20060;-62
2022/04/05 12:39:46;;;;;;;7.55;4.70;;;10.40;99.90;;;;;;5055883;28;20033;-63
2022/04/05 12:42:12;;;;;;;10.52;5.60;;;10.30;99.90;;;;;;5062495;28;20647;-69
2022/04/05 12:44:41;;;;;;;11.55;6.75;;;10.30;99.90;;;;;;5058308;28;20093;-63
2022/04/05 12:47:08;;;;;;;14.82;6.72;;;10.40;99.90;;;;;;5053022;28;20045;-63
2022/04/05 12:49:49;;;;;;;19.08;7.10;;;10.30;99.90;;;;;;5059407;28;20591;-63
2022/04/05 12:52:21;;;;;;;19.13;8.13;;;10.30;99.90;;;;;;5061614;28;20037;-72
2022/04/05 12:54:57;;;;;;;20.58;7.85;;;10.30;99.90;;;;;;5053192;28;20036;-63